sensor_id;sensor_type;location;lat;lon;timestamp;P1;durP1;ratioP1;P2;durP2;ratioP2
9102;SDS011;4587;51.434;6.788;2023-07-08T00:00:22;5.43;;;3.00;;
9102;SDS011;4587;51.434;6.788;2023-07-08T00:02:49;5.43;;;3.00;;
9102;SDS011;4587;51.434;6.788;2023-07-08T00:05:16;5.33;;;3.40;;
9102;SDS011;4587;51.434;6.788;2023-07-08T00:07:43;4.43;;;2.70;;
9102;SDS011;4587;51.434;6.788;2023-07-08T00:10:23;4.57;;;3.13;;
9102;SDS011;4587;51.434;6.788;2023-07-08T00:12:51;3.57;;;2.83;;
9102;SDS011;4587;51.434;6.788;2023-07-08T00:15:18;4.47;;;3.03;;
9102;SDS011;4587;51.434;6.788;2023-07-08T00:17:46;9.10;;;3.00;;
9102;SDS011;4587;51.434;6.788;2023-07-08T00:20:16;4.50;;;2.40;;
9102;SDS011;4587;51.434;6.788;2023-07-08T00:22:54;4.07;;;3.00;;
9102;SDS011;4587;51.434;6.788;2023-07-08T00:25:20;6.13;;;3.00;;
9102;SDS011;4587;51.434;6.788;2023-07-08T00:27:46;3.27;;;2.70;;
9102;SDS011;4587;51.434;6.788;2023-07-08T00:32:48;3.87;;;2.83;;
9102;SDS011;4587;51.434;6.788;2023-07-08T00:35:19;3.70;;;2.53;;
9102;SDS011;4587;51.434;6.788;2023-07-08T00:37:45;3.97;;;2.67;;
9102;SDS011;4587;51.434;6.788;2023-07-08T00:40:15;4.97;;;2.60;;
9102;SDS011;4587;51.434;6.788;2023-07-08T00:42:43;2.97;;;2.67;;
9102;SDS011;4587;51.434;6.788;2023-07-08T00:45:53;2.70;;;2.30;;
9102;SDS011;4587;51.434;6.788;2023-07-08T00:48:18;5.20;;;2.70;;
9102;SDS011;4587;51.434;6.788;2023-07-08T00:50:48;3.17;;;2.60;;
9102;SDS011;4587;51.434;6.788;2023-07-08T00:53:36;4.23;;;2.47;;
9102;SDS011;4587;51.434;6.788;2023-07-08T00:56:02;2.87;;;2.30;;
9102;SDS011;4587;51.434;6.788;2023-07-08T00:58:37;4.20;;;2.53;;
9102;SDS011;4587;51.434;6.788;2023-07-08T01:01:06;5.33;;;2.70;;
9102;SDS011;4587;51.434;6.788;2023-07-08T01:03:33;4.70;;;2.60;;
9102;SDS011;4587;51.434;6.788;2023-07-08T01:06:04;7.73;;;2.70;;
9102;SDS011;4587;51.434;6.788;2023-07-08T01:08:31;6.17;;;2.73;;
9102;SDS011;4587;51.434;6.788;2023-07-08T01:10:59;6.43;;;2.57;;
9102;SDS011;4587;51.434;6.788;2023-07-08T01:13:27;3.30;;;2.77;;
9102;SDS011;4587;51.434;6.788;2023-07-08T01:16:00;6.27;;;2.80;;
9102;SDS011;4587;51.434;6.788;2023-07-08T01:18:26;5.23;;;2.70;;
9102;SDS011;4587;51.434;6.788;2023-07-08T01:20:53;5.23;;;2.90;;
9102;SDS011;4587;51.434;6.788;2023-07-08T01:23:20;4.90;;;2.47;;
9102;SDS011;4587;51.434;6.788;2023-07-08T01:25:47;3.60;;;2.87;;
9102;SDS011;4587;51.434;6.788;2023-07-08T01:28:13;4.17;;;2.63;;
9102;SDS011;4587;51.434;6.788;2023-07-08T01:30:40;5.60;;;2.60;;
9102;SDS011;4587;51.434;6.788;2023-07-08T01:33:12;4.10;;;2.60;;
9102;SDS011;4587;51.434;6.788;2023-07-08T01:35:44;3.70;;;2.67;;
9102;SDS011;4587;51.434;6.788;2023-07-08T01:38:10;4.67;;;2.63;;
9102;SDS011;4587;51.434;6.788;2023-07-08T01:40:47;4.87;;;2.80;;
9102;SDS011;4587;51.434;6.788;2023-07-08T01:43:14;4.73;;;2.40;;
9102;SDS011;4587;51.434;6.788;2023-07-08T01:45:40;6.33;;;2.90;;
9102;SDS011;4587;51.434;6.788;2023-07-08T01:48:07;6.00;;;2.67;;
9102;SDS011;4587;51.434;6.788;2023-07-08T01:50:36;6.80;;;2.67;;
9102;SDS011;4587;51.434;6.788;2023-07-08T01:53:34;3.40;;;2.33;;
9102;SDS011;4587;51.434;6.788;2023-07-08T01:56:02;2.97;;;2.50;;
9102;SDS011;4587;51.434;6.788;2023-07-08T01:58:28;3.53;;;2.73;;
9102;SDS011;4587;51.434;6.788;2023-07-08T02:00:54;4.23;;;2.40;;
9102;SDS011;4587;51.434;6.788;2023-07-08T02:03:20;2.90;;;2.50;;
9102;SDS011;4587;51.434;6.788;2023-07-08T02:05:46;3.80;;;2.50;;
9102;SDS011;4587;51.434;6.788;2023-07-08T02:08:11;3.73;;;2.57;;
9102;SDS011;4587;51.434;6.788;2023-07-08T02:10:38;4.07;;;2.73;;
9102;SDS011;4587;51.434;6.788;2023-07-08T02:13:05;4.50;;;3.03;;
9102;SDS011;4587;51.434;6.788;2023-07-08T02:15:31;5.07;;;2.60;;
9102;SDS011;4587;51.434;6.788;2023-07-08T02:17:57;4.87;;;2.60;;
9102;SDS011;4587;51.434;6.788;2023-07-08T02:20:22;3.97;;;2.77;;
9102;SDS011;4587;51.434;6.788;2023-07-08T02:22:48;4.63;;;2.73;;
9102;SDS011;4587;51.434;6.788;2023-07-08T02:25:14;5.53;;;2.87;;
9102;SDS011;4587;51.434;6.788;2023-07-08T02:27:40;3.03;;;2.50;;
9102;SDS011;4587;51.434;6.788;2023-07-08T02:30:06;4.27;;;2.53;;
9102;SDS011;4587;51.434;6.788;2023-07-08T02:32:33;2.83;;;2.50;;
9102;SDS011;4587;51.434;6.788;2023-07-08T02:35:00;4.67;;;2.70;;
9102;SDS011;4587;51.434;6.788;2023-07-08T02:37:29;5.93;;;2.57;;
9102;SDS011;4587;51.434;6.788;2023-07-08T02:39:55;3.43;;;2.63;;
9102;SDS011;4587;51.434;6.788;2023-07-08T02:42:20;5.03;;;2.70;;
9102;SDS011;4587;51.434;6.788;2023-07-08T02:44:46;4.57;;;2.40;;
9102;SDS011;4587;51.434;6.788;2023-07-08T02:47:12;4.70;;;2.50;;
9102;SDS011;4587;51.434;6.788;2023-07-08T02:49:37;6.60;;;2.57;;
9102;SDS011;4587;51.434;6.788;2023-07-08T02:52:03;4.73;;;2.60;;
9102;SDS011;4587;51.434;6.788;2023-07-08T02:54:29;3.90;;;2.50;;
9102;SDS011;4587;51.434;6.788;2023-07-08T02:56:54;4.10;;;3.00;;
9102;SDS011;4587;51.434;6.788;2023-07-08T02:59:20;4.37;;;2.80;;
9102;SDS011;4587;51.434;6.788;2023-07-08T03:01:45;4.90;;;2.90;;
9102;SDS011;4587;51.434;6.788;2023-07-08T03:04:11;6.77;;;2.97;;
9102;SDS011;4587;51.434;6.788;2023-07-08T03:06:40;4.73;;;2.33;;
9102;SDS011;4587;51.434;6.788;2023-07-08T03:09:06;5.67;;;2.27;;
9102;SDS011;4587;51.434;6.788;2023-07-08T03:11:32;2.33;;;2.13;;
9102;SDS011;4587;51.434;6.788;2023-07-08T03:13:58;3.43;;;2.40;;
9102;SDS011;4587;51.434;6.788;2023-07-08T03:16:23;3.90;;;3.00;;
9102;SDS011;4587;51.434;6.788;2023-07-08T03:18:49;5.17;;;2.63;;
9102;SDS011;4587;51.434;6.788;2023-07-08T03:21:16;3.63;;;2.50;;
9102;SDS011;4587;51.434;6.788;2023-07-08T03:23:42;3.47;;;2.73;;
9102;SDS011;4587;51.434;6.788;2023-07-08T03:26:11;3.90;;;2.80;;
9102;SDS011;4587;51.434;6.788;2023-07-08T03:28:39;3.50;;;2.50;;
9102;SDS011;4587;51.434;6.788;2023-07-08T03:31:05;3.17;;;2.60;;
9102;SDS011;4587;51.434;6.788;2023-07-08T03:33:34;5.07;;;2.57;;
9102;SDS011;4587;51.434;6.788;2023-07-08T03:36:00;4.87;;;2.30;;
9102;SDS011;4587;51.434;6.788;2023-07-08T03:38:26;5.40;;;2.90;;
9102;SDS011;4587;51.434;6.788;2023-07-08T03:40:51;4.93;;;2.70;;
9102;SDS011;4587;51.434;6.788;2023-07-08T03:43:17;4.17;;;2.80;;
9102;SDS011;4587;51.434;6.788;2023-07-08T03:45:43;5.17;;;3.00;;
9102;SDS011;4587;51.434;6.788;2023-07-08T03:48:10;3.63;;;2.73;;
9102;SDS011;4587;51.434;6.788;2023-07-08T03:50:36;3.77;;;2.80;;
9102;SDS011;4587;51.434;6.788;2023-07-08T03:53:02;4.57;;;2.70;;
9102;SDS011;4587;51.434;6.788;2023-07-08T03:55:28;5.87;;;2.70;;
9102;SDS011;4587;51.434;6.788;2023-07-08T03:57:53;3.17;;;2.57;;
9102;SDS011;4587;51.434;6.788;2023-07-08T04:00:19;2.83;;;2.53;;
9102;SDS011;4587;51.434;6.788;2023-07-08T04:02:45;3.30;;;2.40;;
9102;SDS011;4587;51.434;6.788;2023-07-08T04:05:18;5.20;;;2.43;;
9102;SDS011;4587;51.434;6.788;2023-07-08T04:07:45;3.47;;;2.63;;
9102;SDS011;4587;51.434;6.788;2023-07-08T04:10:11;4.20;;;2.87;;
9102;SDS011;4587;51.434;6.788;2023-07-08T04:12:38;4.87;;;2.87;;
9102;SDS011;4587;51.434;6.788;2023-07-08T04:15:05;3.77;;;2.80;;
9102;SDS011;4587;51.434;6.788;2023-07-08T04:17:33;4.20;;;2.60;;
9102;SDS011;4587;51.434;6.788;2023-07-08T04:20:00;6.10;;;2.70;;
9102;SDS011;4587;51.434;6.788;2023-07-08T04:22:28;2.80;;;2.40;;
9102;SDS011;4587;51.434;6.788;2023-07-08T04:24:54;6.43;;;2.50;;
9102;SDS011;4587;51.434;6.788;2023-07-08T04:27:20;6.50;;;2.77;;
9102;SDS011;4587;51.434;6.788;2023-07-08T04:29:45;2.80;;;2.40;;
9102;SDS011;4587;51.434;6.788;2023-07-08T04:32:11;5.50;;;2.90;;
9102;SDS011;4587;51.434;6.788;2023-07-08T04:34:36;2.80;;;2.47;;
9102;SDS011;4587;51.434;6.788;2023-07-08T04:37:02;4.67;;;2.47;;
9102;SDS011;4587;51.434;6.788;2023-07-08T04:39:29;4.23;;;2.30;;
9102;SDS011;4587;51.434;6.788;2023-07-08T04:41:56;3.23;;;2.40;;
9102;SDS011;4587;51.434;6.788;2023-07-08T04:44:21;3.23;;;2.40;;
9102;SDS011;4587;51.434;6.788;2023-07-08T04:46:48;6.20;;;2.90;;
9102;SDS011;4587;51.434;6.788;2023-07-08T04:49:18;5.40;;;2.93;;
9102;SDS011;4587;51.434;6.788;2023-07-08T04:51:43;5.40;;;2.63;;
9102;SDS011;4587;51.434;6.788;2023-07-08T04:54:09;3.93;;;2.80;;
9102;SDS011;4587;51.434;6.788;2023-07-08T04:56:45;5.13;;;2.43;;
9102;SDS011;4587;51.434;6.788;2023-07-08T04:59:13;3.40;;;2.60;;
9102;SDS011;4587;51.434;6.788;2023-07-08T05:01:41;4.60;;;3.33;;
9102;SDS011;4587;51.434;6.788;2023-07-08T05:04:07;4.70;;;2.90;;
9102;SDS011;4587;51.434;6.788;2023-07-08T05:06:34;5.40;;;3.00;;
9102;SDS011;4587;51.434;6.788;2023-07-08T05:09:00;4.30;;;3.00;;
9102;SDS011;4587;51.434;6.788;2023-07-08T05:11:27;4.90;;;2.67;;
9102;SDS011;4587;51.434;6.788;2023-07-08T05:13:53;4.87;;;3.20;;
9102;SDS011;4587;51.434;6.788;2023-07-08T05:16:19;5.20;;;3.03;;
9102;SDS011;4587;51.434;6.788;2023-07-08T05:18:45;3.23;;;2.40;;
9102;SDS011;4587;51.434;6.788;2023-07-08T05:21:11;4.00;;;2.70;;
9102;SDS011;4587;51.434;6.788;2023-07-08T05:23:37;4.23;;;2.70;;
9102;SDS011;4587;51.434;6.788;2023-07-08T05:26:03;4.37;;;2.50;;
9102;SDS011;4587;51.434;6.788;2023-07-08T05:28:30;4.30;;;2.60;;
9102;SDS011;4587;51.434;6.788;2023-07-08T05:30:56;5.27;;;2.70;;
9102;SDS011;4587;51.434;6.788;2023-07-08T05:33:23;3.83;;;2.67;;
9102;SDS011;4587;51.434;6.788;2023-07-08T05:35:49;4.13;;;3.00;;
9102;SDS011;4587;51.434;6.788;2023-07-08T05:38:15;4.83;;;2.83;;
9102;SDS011;4587;51.434;6.788;2023-07-08T05:40:41;7.53;;;3.17;;
9102;SDS011;4587;51.434;6.788;2023-07-08T05:43:06;4.30;;;2.73;;
9102;SDS011;4587;51.434;6.788;2023-07-08T05:45:32;4.90;;;3.00;;
9102;SDS011;4587;51.434;6.788;2023-07-08T05:48:00;4.93;;;3.03;;
9102;SDS011;4587;51.434;6.788;2023-07-08T05:50:26;7.13;;;2.63;;
9102;SDS011;4587;51.434;6.788;2023-07-08T05:52:52;7.00;;;3.20;;
9102;SDS011;4587;51.434;6.788;2023-07-08T05:55:18;6.25;;;2.70;;
9102;SDS011;4587;51.434;6.788;2023-07-08T05:57:43;4.53;;;2.80;;
9102;SDS011;4587;51.434;6.788;2023-07-08T06:00:09;5.67;;;2.93;;
9102;SDS011;4587;51.434;6.788;2023-07-08T06:02:35;4.07;;;3.07;;
9102;SDS011;4587;51.434;6.788;2023-07-08T06:05:01;4.10;;;2.80;;
9102;SDS011;4587;51.434;6.788;2023-07-08T06:07:27;5.50;;;3.43;;
9102;SDS011;4587;51.434;6.788;2023-07-08T06:09:53;5.33;;;3.20;;
9102;SDS011;4587;51.434;6.788;2023-07-08T06:12:20;6.07;;;3.10;;
9102;SDS011;4587;51.434;6.788;2023-07-08T06:14:46;3.37;;;2.73;;
9102;SDS011;4587;51.434;6.788;2023-07-08T06:17:12;6.57;;;3.20;;
9102;SDS011;4587;51.434;6.788;2023-07-08T06:19:37;5.13;;;3.30;;
9102;SDS011;4587;51.434;6.788;2023-07-08T06:22:03;4.27;;;3.00;;
9102;SDS011;4587;51.434;6.788;2023-07-08T06:24:29;5.77;;;3.60;;
9102;SDS011;4587;51.434;6.788;2023-07-08T06:26:54;4.67;;;3.10;;
9102;SDS011;4587;51.434;6.788;2023-07-08T06:29:20;6.07;;;3.73;;
9102;SDS011;4587;51.434;6.788;2023-07-08T06:31:46;4.73;;;3.43;;
9102;SDS011;4587;51.434;6.788;2023-07-08T06:34:11;5.33;;;3.17;;
9102;SDS011;4587;51.434;6.788;2023-07-08T06:36:37;5.43;;;3.40;;
9102;SDS011;4587;51.434;6.788;2023-07-08T06:39:02;5.85;;;3.65;;
9102;SDS011;4587;51.434;6.788;2023-07-08T06:41:28;5.18;;;3.58;;
9102;SDS011;4587;51.434;6.788;2023-07-08T06:43:54;4.80;;;3.20;;
9102;SDS011;4587;51.434;6.788;2023-07-08T06:46:19;8.10;;;3.50;;
9102;SDS011;4587;51.434;6.788;2023-07-08T06:48:45;6.90;;;3.35;;
9102;SDS011;4587;51.434;6.788;2023-07-08T06:51:11;6.97;;;3.40;;
9102;SDS011;4587;51.434;6.788;2023-07-08T06:53:36;6.97;;;3.17;;
9102;SDS011;4587;51.434;6.788;2023-07-08T06:56:02;6.20;;;3.60;;
9102;SDS011;4587;51.434;6.788;2023-07-08T06:58:28;6.65;;;3.58;;
9102;SDS011;4587;51.434;6.788;2023-07-08T07:00:54;5.93;;;3.80;;
9102;SDS011;4587;51.434;6.788;2023-07-08T07:03:19;5.75;;;3.55;;
9102;SDS011;4587;51.434;6.788;2023-07-08T07:05:45;6.38;;;3.33;;
9102;SDS011;4587;51.434;6.788;2023-07-08T07:08:10;3.95;;;3.40;;
9102;SDS011;4587;51.434;6.788;2023-07-08T07:10:36;5.28;;;3.00;;
9102;SDS011;4587;51.434;6.788;2023-07-08T07:13:02;5.32;;;3.55;;
9102;SDS011;4587;51.434;6.788;2023-07-08T07:15:27;5.53;;;3.40;;
9102;SDS011;4587;51.434;6.788;2023-07-08T07:17:55;6.18;;;3.53;;
9102;SDS011;4587;51.434;6.788;2023-07-08T07:20:21;5.93;;;3.30;;
9102;SDS011;4587;51.434;6.788;2023-07-08T07:22:47;7.68;;;3.65;;
9102;SDS011;4587;51.434;6.788;2023-07-08T07:25:12;4.65;;;3.35;;
9102;SDS011;4587;51.434;6.788;2023-07-08T07:27:38;7.68;;;3.78;;
9102;SDS011;4587;51.434;6.788;2023-07-08T07:30:03;7.50;;;3.53;;
9102;SDS011;4587;51.434;6.788;2023-07-08T07:32:32;7.18;;;3.60;;
9102;SDS011;4587;51.434;6.788;2023-07-08T07:34:59;8.07;;;3.80;;
9102;SDS011;4587;51.434;6.788;2023-07-08T07:37:25;5.13;;;3.90;;
9102;SDS011;4587;51.434;6.788;2023-07-08T07:39:50;9.45;;;4.05;;
9102;SDS011;4587;51.434;6.788;2023-07-08T07:42:16;8.07;;;3.72;;
9102;SDS011;4587;51.434;6.788;2023-07-08T07:44:44;6.35;;;3.92;;
9102;SDS011;4587;51.434;6.788;2023-07-08T07:47:10;4.75;;;4.13;;
9102;SDS011;4587;51.434;6.788;2023-07-08T07:49:36;5.50;;;4.10;;
9102;SDS011;4587;51.434;6.788;2023-07-08T07:52:02;5.03;;;4.20;;
9102;SDS011;4587;51.434;6.788;2023-07-08T07:54:28;5.30;;;4.68;;
9102;SDS011;4587;51.434;6.788;2023-07-08T07:56:54;5.20;;;4.70;;
9102;SDS011;4587;51.434;6.788;2023-07-08T07:59:20;5.60;;;4.88;;
9102;SDS011;4587;51.434;6.788;2023-07-08T08:01:46;7.70;;;5.05;;
9102;SDS011;4587;51.434;6.788;2023-07-08T08:04:11;6.03;;;5.07;;
9102;SDS011;4587;51.434;6.788;2023-07-08T08:06:37;5.03;;;4.53;;
9102;SDS011;4587;51.434;6.788;2023-07-08T08:09:03;5.53;;;4.88;;
9102;SDS011;4587;51.434;6.788;2023-07-08T08:11:30;5.95;;;5.35;;
9102;SDS011;4587;51.434;6.788;2023-07-08T08:13:56;5.82;;;5.10;;
9102;SDS011;4587;51.434;6.788;2023-07-08T08:16:22;6.82;;;5.50;;
9102;SDS011;4587;51.434;6.788;2023-07-08T08:18:48;6.28;;;5.65;;
9102;SDS011;4587;51.434;6.788;2023-07-08T08:21:14;6.97;;;5.43;;
9102;SDS011;4587;51.434;6.788;2023-07-08T08:23:40;7.88;;;6.28;;
9102;SDS011;4587;51.434;6.788;2023-07-08T08:26:06;6.20;;;5.47;;
9102;SDS011;4587;51.434;6.788;2023-07-08T08:28:31;7.07;;;5.90;;
9102;SDS011;4587;51.434;6.788;2023-07-08T08:30:57;6.60;;;5.95;;
9102;SDS011;4587;51.434;6.788;2023-07-08T08:33:22;6.93;;;5.93;;
9102;SDS011;4587;51.434;6.788;2023-07-08T08:35:48;8.75;;;6.00;;
9102;SDS011;4587;51.434;6.788;2023-07-08T08:38:13;6.93;;;6.22;;
9102;SDS011;4587;51.434;6.788;2023-07-08T08:40:39;7.60;;;6.18;;
9102;SDS011;4587;51.434;6.788;2023-07-08T08:43:12;7.20;;;6.25;;
9102;SDS011;4587;51.434;6.788;2023-07-08T08:45:46;7.82;;;6.05;;
9102;SDS011;4587;51.434;6.788;2023-07-08T08:48:26;7.50;;;6.10;;
9102;SDS011;4587;51.434;6.788;2023-07-08T08:51:07;6.53;;;5.70;;
9102;SDS011;4587;51.434;6.788;2023-07-08T08:53:38;8.18;;;6.18;;
9102;SDS011;4587;51.434;6.788;2023-07-08T08:56:20;7.85;;;5.55;;
9102;SDS011;4587;51.434;6.788;2023-07-08T09:01:41;6.65;;;5.40;;
9102;SDS011;4587;51.434;6.788;2023-07-08T09:04:11;8.02;;;5.70;;
9102;SDS011;4587;51.434;6.788;2023-07-08T09:06:41;9.18;;;5.65;;
9102;SDS011;4587;51.434;6.788;2023-07-08T09:09:12;8.20;;;5.53;;
9102;SDS011;4587;51.434;6.788;2023-07-08T09:25:59;6.20;;;5.03;;
9102;SDS011;4587;51.434;6.788;2023-07-08T09:28:36;5.55;;;4.70;;
9102;SDS011;4587;51.434;6.788;2023-07-08T09:31:03;5.30;;;4.80;;
9102;SDS011;4587;51.434;6.788;2023-07-08T09:33:32;7.53;;;5.05;;
9102;SDS011;4587;51.434;6.788;2023-07-08T09:35:59;5.88;;;4.40;;
9102;SDS011;4587;51.434;6.788;2023-07-08T09:38:25;5.50;;;4.82;;
9102;SDS011;4587;51.434;6.788;2023-07-08T09:40:52;6.22;;;5.28;;
9102;SDS011;4587;51.434;6.788;2023-07-08T09:43:36;4.95;;;4.45;;
9102;SDS011;4587;51.434;6.788;2023-07-08T09:46:03;5.45;;;4.75;;
9102;SDS011;4587;51.434;6.788;2023-07-08T09:48:31;5.40;;;4.82;;
9102;SDS011;4587;51.434;6.788;2023-07-08T09:51:00;5.45;;;4.57;;
9102;SDS011;4587;51.434;6.788;2023-07-08T09:53:26;6.00;;;4.35;;
9102;SDS011;4587;51.434;6.788;2023-07-08T09:55:52;5.22;;;4.28;;
9102;SDS011;4587;51.434;6.788;2023-07-08T09:58:25;4.65;;;4.15;;
9102;SDS011;4587;51.434;6.788;2023-07-08T10:00:55;6.25;;;4.47;;
9102;SDS011;4587;51.434;6.788;2023-07-08T10:03:25;5.15;;;4.55;;
9102;SDS011;4587;51.434;6.788;2023-07-08T10:05:54;6.72;;;4.47;;
9102;SDS011;4587;51.434;6.788;2023-07-08T10:08:28;5.43;;;4.35;;
9102;SDS011;4587;51.434;6.788;2023-07-08T10:13:59;5.22;;;4.32;;
9102;SDS011;4587;51.434;6.788;2023-07-08T10:16:30;6.57;;;4.90;;
9102;SDS011;4587;51.434;6.788;2023-07-08T10:18:58;7.30;;;4.65;;
9102;SDS011;4587;51.434;6.788;2023-07-08T10:26:54;7.03;;;4.70;;
9102;SDS011;4587;51.434;6.788;2023-07-08T10:29:36;5.78;;;4.50;;
9102;SDS011;4587;51.434;6.788;2023-07-08T10:35:12;4.60;;;4.20;;
9102;SDS011;4587;51.434;6.788;2023-07-08T10:40:14;8.27;;;4.32;;
9102;SDS011;4587;51.434;6.788;2023-07-08T10:51:36;8.25;;;4.72;;
9102;SDS011;4587;51.434;6.788;2023-07-08T10:57:10;6.32;;;4.55;;
9102;SDS011;4587;51.434;6.788;2023-07-08T11:02:52;6.45;;;4.50;;
9102;SDS011;4587;51.434;6.788;2023-07-08T11:05:36;5.05;;;4.03;;
9102;SDS011;4587;51.434;6.788;2023-07-08T11:08:19;5.18;;;4.13;;
9102;SDS011;4587;51.434;6.788;2023-07-08T11:10:58;8.55;;;4.30;;
9102;SDS011;4587;51.434;6.788;2023-07-08T11:13:33;4.60;;;4.10;;
9102;SDS011;4587;51.434;6.788;2023-07-08T11:16:05;4.65;;;4.05;;
9102;SDS011;4587;51.434;6.788;2023-07-08T11:21:19;4.40;;;3.90;;
9102;SDS011;4587;51.434;6.788;2023-07-08T11:24:04;6.18;;;4.15;;
9102;SDS011;4587;51.434;6.788;2023-07-08T11:26:52;7.97;;;3.80;;
9102;SDS011;4587;51.434;6.788;2023-07-08T11:29:28;4.40;;;3.72;;
9102;SDS011;4587;51.434;6.788;2023-07-08T11:31:55;6.57;;;3.70;;
9102;SDS011;4587;51.434;6.788;2023-07-08T11:34:21;6.05;;;3.95;;
9102;SDS011;4587;51.434;6.788;2023-07-08T11:36:48;6.15;;;4.00;;
9102;SDS011;4587;51.434;6.788;2023-07-08T11:42:22;5.45;;;4.00;;
9102;SDS011;4587;51.434;6.788;2023-07-08T11:45:00;6.88;;;4.00;;
9102;SDS011;4587;51.434;6.788;2023-07-08T11:47:41;7.32;;;4.07;;
9102;SDS011;4587;51.434;6.788;2023-07-08T11:50:22;4.78;;;4.30;;
9102;SDS011;4587;51.434;6.788;2023-07-08T11:52:54;6.28;;;4.50;;
9102;SDS011;4587;51.434;6.788;2023-07-08T11:58:06;5.07;;;4.22;;
9102;SDS011;4587;51.434;6.788;2023-07-08T12:00:34;4.63;;;4.00;;
9102;SDS011;4587;51.434;6.788;2023-07-08T12:03:04;5.30;;;4.28;;
9102;SDS011;4587;51.434;6.788;2023-07-08T12:05:46;6.07;;;4.03;;
9102;SDS011;4587;51.434;6.788;2023-07-08T12:08:15;5.60;;;4.05;;
9102;SDS011;4587;51.434;6.788;2023-07-08T12:10:48;6.72;;;4.32;;
9102;SDS011;4587;51.434;6.788;2023-07-08T12:13:23;5.90;;;4.28;;
9102;SDS011;4587;51.434;6.788;2023-07-08T12:15:49;5.38;;;4.28;;
9102;SDS011;4587;51.434;6.788;2023-07-08T12:18:16;5.88;;;4.13;;
9102;SDS011;4587;51.434;6.788;2023-07-08T12:20:56;6.03;;;3.90;;
9102;SDS011;4587;51.434;6.788;2023-07-08T12:23:24;7.30;;;3.95;;
9102;SDS011;4587;51.434;6.788;2023-07-08T12:25:51;4.32;;;3.92;;
9102;SDS011;4587;51.434;6.788;2023-07-08T12:28:18;5.68;;;4.28;;
9102;SDS011;4587;51.434;6.788;2023-07-08T12:30:45;4.55;;;4.03;;
9102;SDS011;4587;51.434;6.788;2023-07-08T12:33:12;7.40;;;4.10;;
9102;SDS011;4587;51.434;6.788;2023-07-08T12:35:41;5.78;;;4.13;;
9102;SDS011;4587;51.434;6.788;2023-07-08T12:40:49;6.78;;;3.80;;
9102;SDS011;4587;51.434;6.788;2023-07-08T12:43:15;5.93;;;3.97;;
9102;SDS011;4587;51.434;6.788;2023-07-08T12:45:42;6.10;;;3.75;;
9102;SDS011;4587;51.434;6.788;2023-07-08T12:48:08;6.15;;;3.70;;
9102;SDS011;4587;51.434;6.788;2023-07-08T12:50:34;6.82;;;3.65;;
9102;SDS011;4587;51.434;6.788;2023-07-08T12:53:00;5.63;;;3.92;;
9102;SDS011;4587;51.434;6.788;2023-07-08T12:55:29;4.95;;;3.97;;
9102;SDS011;4587;51.434;6.788;2023-07-08T12:57:55;4.75;;;4.22;;
9102;SDS011;4587;51.434;6.788;2023-07-08T13:00:23;4.50;;;4.03;;
9102;SDS011;4587;51.434;6.788;2023-07-08T13:02:57;5.68;;;4.15;;
9102;SDS011;4587;51.434;6.788;2023-07-08T13:05:28;6.05;;;4.13;;
9102;SDS011;4587;51.434;6.788;2023-07-08T13:07:54;6.15;;;4.13;;
9102;SDS011;4587;51.434;6.788;2023-07-08T13:10:22;4.82;;;3.97;;
9102;SDS011;4587;51.434;6.788;2023-07-08T13:12:51;8.70;;;4.07;;
9102;SDS011;4587;51.434;6.788;2023-07-08T13:15:22;6.65;;;3.92;;
9102;SDS011;4587;51.434;6.788;2023-07-08T13:17:53;6.68;;;3.72;;
9102;SDS011;4587;51.434;6.788;2023-07-08T13:20:19;5.38;;;3.80;;
9102;SDS011;4587;51.434;6.788;2023-07-08T13:22:59;6.22;;;4.00;;
9102;SDS011;4587;51.434;6.788;2023-07-08T13:25:27;8.02;;;4.03;;
9102;SDS011;4587;51.434;6.788;2023-07-08T13:27:59;5.63;;;3.83;;
9102;SDS011;4587;51.434;6.788;2023-07-08T13:30:28;5.38;;;3.88;;
9102;SDS011;4587;51.434;6.788;2023-07-08T13:32:56;4.90;;;3.70;;
9102;SDS011;4587;51.434;6.788;2023-07-08T13:35:34;5.97;;;3.80;;
9102;SDS011;4587;51.434;6.788;2023-07-08T13:38:02;6.20;;;4.03;;
9102;SDS011;4587;51.434;6.788;2023-07-08T13:40:28;4.80;;;3.80;;
9102;SDS011;4587;51.434;6.788;2023-07-08T13:42:55;5.65;;;3.88;;
9102;SDS011;4587;51.434;6.788;2023-07-08T13:45:27;6.25;;;3.92;;
9102;SDS011;4587;51.434;6.788;2023-07-08T13:47:59;5.05;;;3.75;;
9102;SDS011;4587;51.434;6.788;2023-07-08T13:50:43;5.15;;;3.85;;
9102;SDS011;4587;51.434;6.788;2023-07-08T13:53:22;4.63;;;4.10;;
9102;SDS011;4587;51.434;6.788;2023-07-08T13:56:00;4.55;;;3.60;;
9102;SDS011;4587;51.434;6.788;2023-07-08T13:58:28;6.78;;;4.05;;
9102;SDS011;4587;51.434;6.788;2023-07-08T14:00:56;5.97;;;4.43;;
9102;SDS011;4587;51.434;6.788;2023-07-08T14:03:22;7.43;;;4.00;;
9102;SDS011;4587;51.434;6.788;2023-07-08T14:05:50;5.72;;;4.10;;
9102;SDS011;4587;51.434;6.788;2023-07-08T14:08:16;5.78;;;3.92;;
9102;SDS011;4587;51.434;6.788;2023-07-08T14:10:46;8.07;;;4.50;;
9102;SDS011;4587;51.434;6.788;2023-07-08T14:13:11;7.07;;;4.20;;
9102;SDS011;4587;51.434;6.788;2023-07-08T14:15:38;6.55;;;3.70;;
9102;SDS011;4587;51.434;6.788;2023-07-08T14:18:04;5.63;;;4.15;;
9102;SDS011;4587;51.434;6.788;2023-07-08T14:20:30;5.20;;;3.78;;
9102;SDS011;4587;51.434;6.788;2023-07-08T14:22:57;5.57;;;4.15;;
9102;SDS011;4587;51.434;6.788;2023-07-08T14:25:23;4.75;;;3.70;;
9102;SDS011;4587;51.434;6.788;2023-07-08T14:27:51;4.28;;;3.42;;
9102;SDS011;4587;51.434;6.788;2023-07-08T14:30:17;6.90;;;3.85;;
9102;SDS011;4587;51.434;6.788;2023-07-08T14:32:43;8.40;;;3.72;;
9102;SDS011;4587;51.434;6.788;2023-07-08T14:35:14;4.07;;;3.45;;
9102;SDS011;4587;51.434;6.788;2023-07-08T14:37:46;4.60;;;3.40;;
9102;SDS011;4587;51.434;6.788;2023-07-08T14:40:19;4.90;;;3.47;;
9102;SDS011;4587;51.434;6.788;2023-07-08T14:42:45;4.30;;;3.65;;
9102;SDS011;4587;51.434;6.788;2023-07-08T14:45:10;5.25;;;3.88;;
9102;SDS011;4587;51.434;6.788;2023-07-08T14:47:36;6.32;;;3.90;;
9102;SDS011;4587;51.434;6.788;2023-07-08T14:50:14;7.63;;;3.70;;
9102;SDS011;4587;51.434;6.788;2023-07-08T14:52:40;6.03;;;3.90;;
9102;SDS011;4587;51.434;6.788;2023-07-08T14:55:06;5.65;;;3.63;;
9102;SDS011;4587;51.434;6.788;2023-07-08T14:57:33;5.05;;;3.72;;
9102;SDS011;4587;51.434;6.788;2023-07-08T15:00:04;4.10;;;3.67;;
9102;SDS011;4587;51.434;6.788;2023-07-08T15:02:30;7.65;;;3.90;;
9102;SDS011;4587;51.434;6.788;2023-07-08T15:04:59;7.07;;;3.42;;
9102;SDS011;4587;51.434;6.788;2023-07-08T15:07:25;5.90;;;3.85;;
9102;SDS011;4587;51.434;6.788;2023-07-08T15:09:50;6.32;;;3.80;;
9102;SDS011;4587;51.434;6.788;2023-07-08T15:12:16;5.32;;;3.83;;
9102;SDS011;4587;51.434;6.788;2023-07-08T15:14:41;5.25;;;3.72;;
9102;SDS011;4587;51.434;6.788;2023-07-08T15:17:11;7.00;;;4.25;;
9102;SDS011;4587;51.434;6.788;2023-07-08T15:19:41;7.28;;;4.15;;
9102;SDS011;4587;51.434;6.788;2023-07-08T15:22:06;4.50;;;3.83;;
9102;SDS011;4587;51.434;6.788;2023-07-08T15:24:32;4.28;;;3.80;;
9102;SDS011;4587;51.434;6.788;2023-07-08T15:26:58;5.18;;;4.10;;
9102;SDS011;4587;51.434;6.788;2023-07-08T15:29:23;5.32;;;4.40;;
9102;SDS011;4587;51.434;6.788;2023-07-08T15:31:49;7.40;;;4.45;;
9102;SDS011;4587;51.434;6.788;2023-07-08T15:34:19;5.00;;;4.10;;
9102;SDS011;4587;51.434;6.788;2023-07-08T15:36:46;5.05;;;4.18;;
9102;SDS011;4587;51.434;6.788;2023-07-08T15:39:12;4.88;;;4.10;;
9102;SDS011;4587;51.434;6.788;2023-07-08T15:41:38;6.57;;;3.97;;
9102;SDS011;4587;51.434;6.788;2023-07-08T15:44:04;4.70;;;3.88;;
9102;SDS011;4587;51.434;6.788;2023-07-08T15:46:37;6.57;;;4.20;;
9102;SDS011;4587;51.434;6.788;2023-07-08T15:49:16;5.25;;;4.00;;
9102;SDS011;4587;51.434;6.788;2023-07-08T15:51:44;7.38;;;4.43;;
9102;SDS011;4587;51.434;6.788;2023-07-08T15:54:10;7.75;;;3.95;;
9102;SDS011;4587;51.434;6.788;2023-07-08T15:56:36;5.47;;;3.90;;
9102;SDS011;4587;51.434;6.788;2023-07-08T15:59:03;6.03;;;3.83;;
9102;SDS011;4587;51.434;6.788;2023-07-08T16:01:29;4.57;;;3.78;;
9102;SDS011;4587;51.434;6.788;2023-07-08T16:03:55;6.70;;;3.70;;
9102;SDS011;4587;51.434;6.788;2023-07-08T16:06:20;6.40;;;3.92;;
9102;SDS011;4587;51.434;6.788;2023-07-08T16:08:46;6.35;;;4.53;;
9102;SDS011;4587;51.434;6.788;2023-07-08T16:11:16;5.57;;;4.00;;
9102;SDS011;4587;51.434;6.788;2023-07-08T16:13:50;6.18;;;3.90;;
9102;SDS011;4587;51.434;6.788;2023-07-08T16:16:16;7.93;;;4.78;;
9102;SDS011;4587;51.434;6.788;2023-07-08T16:18:41;5.68;;;3.90;;
9102;SDS011;4587;51.434;6.788;2023-07-08T16:21:07;8.20;;;4.38;;